»·PEaware :: N326MC KPHX-KBFL

N326MC :: KPHX-KBFL

FLIGHT INFORMATION

Flight Status: Arrived
Operator: Privately registered:
United States
More flights under this callsign
Pilot: Anonymous 5456 (5456)
Aircraft: BOEING 737-200
(B732)
More flights by this aircraft type
Origin: KPHX Phoenix Sky Harbor Intl
United States
Destination: KBFL Meadows
United States
More flights between these airports :: More routes between these airports
Route: BXK4 PMD FASTO2
File this flight plan on PilotEdge
Remarks:
Altitude:
(Current/Filed)
32,000ft
Speed:
(Current/Filed)
450kts
Departed: 31-Jan-18 06:55 PM
Arrived: 31-Jan-18 08:05 PM
Distance/Time
Traveled:
368nm/1:10
Distance/Time
To Go:
Arrived

Flight Plot

Page will automatically refresh every two minutes.

Flight plan parsing failed; only flown route is shown


Map Options




Map Legend


Flown Route
Filed Route
Departure Airport
Arrival Airport
Navaid (VOR, NDB)
Fix

Horizontal Profiles

Position Reports

Time Latitude Longitude Heading Altitude Ground
Speed
31-Jan-18 18:46 33.425770 -112.019526 270 1143ft 0kts
31-Jan-18 18:47 33.425770 -112.019526 270 1143ft 0kts
31-Jan-18 18:48 33.425770 -112.019526 270 1143ft 0kts
31-Jan-18 18:49 33.425770 -112.019526 270 1143ft 0kts
31-Jan-18 18:50 33.425770 -112.019526 270 1143ft 0kts
31-Jan-18 18:51 33.425770 -112.019526 270 1143ft 0kts
31-Jan-18 18:52 33.425770 -112.019526 270 1143ft 0kts
31-Jan-18 18:53 33.425770 -112.019526 270 1143ft 0kts
31-Jan-18 18:54 33.425770 -112.019526 269 1143ft 0kts
31-Jan-18 18:55 33.425770 -112.019526 269 1143ft 0kts
31-Jan-18 18:56 33.425770 -112.019526 270 1143ft 0kts
31-Jan-18 18:57 33.425789 -112.019785 282 1143ft 3kts
31-Jan-18 18:58 33.427756 -112.022253 267 1143ft 12kts
31-Jan-18 18:59 33.427734 -112.026511 283 1143ft 11kts
31-Jan-18 19:00 33.428722 -112.026811 39 1143ft 9kts
31-Jan-18 19:01 33.428866 -112.012121 90 1143ft 147kts
31-Jan-18 19:02 33.431546 -111.952024 82 3404ft 211kts
31-Jan-18 19:03 33.434806 -111.882385 119 6333ft 229kts
31-Jan-18 19:04 33.379043 -111.884635 226 9212ft 257kts
31-Jan-18 19:05 33.329784 -111.954808 228 10588ft 325kts
31-Jan-18 19:06 33.268753 -112.040871 229 12895ft 349kts
31-Jan-18 19:07 33.205340 -112.129930 230 15213ft 361kts
31-Jan-18 19:08 33.195825 -112.240729 290 17292ft 357kts
31-Jan-18 19:09 33.231787 -112.350722 304 19188ft 360kts
31-Jan-18 19:10 33.282108 -112.454878 302 20913ft 367kts
31-Jan-18 19:11 33.331784 -112.561338 302 22451ft 372kts
31-Jan-18 19:12 33.381600 -112.668833 301 23782ft 378kts
31-Jan-18 19:13 33.432415 -112.778865 301 24975ft 383kts
31-Jan-18 19:14 33.467407 -112.899683 286 26012ft 393kts
31-Jan-18 19:15 33.492426 -113.027117 286 26929ft 399kts
31-Jan-18 19:16 33.517020 -113.155535 286 27758ft 403kts
31-Jan-18 19:17 33.537748 -113.264569 285 28389ft 406kts
31-Jan-18 19:18 33.566702 -113.417852 285 29180ft 410kts
31-Jan-18 19:19 33.589095 -113.537172 285 29744ft 413kts
31-Jan-18 19:20 33.613118 -113.665909 285 30241ft 416kts
31-Jan-18 19:21 33.638103 -113.800669 285 30723ft 419kts
31-Jan-18 19:22 33.658981 -113.913934 285 31099ft 421kts
31-Jan-18 19:23 33.688250 -114.073772 284 31566ft 424kts
31-Jan-18 19:24 33.713263 -114.211363 284 31937ft 426kts
31-Jan-18 19:25 33.734136 -114.326852 284 32000ft 433kts
31-Jan-18 19:26 33.759582 -114.468578 284 31999ft 441kts
31-Jan-18 19:27 33.776254 -114.605694 277 31997ft 449kts
31-Jan-18 19:28 33.783891 -114.730436 276 32000ft 454kts
31-Jan-18 19:29 33.792499 -114.880788 276 32000ft 458kts
31-Jan-18 19:30 33.800809 -115.029985 276 31998ft 461kts
31-Jan-18 19:31 33.805124 -115.108785 276 31998ft 463kts
31-Jan-18 19:32 33.810964 -115.216819 276 31998ft 465kts
31-Jan-18 19:33 33.818532 -115.359228 276 31982ft 468kts
31-Jan-18 19:34 33.839714 -115.501980 292 31971ft 463kts
31-Jan-18 19:35 33.847714 -115.528518 293 31970ft 463kts
31-Jan-18 19:36 33.889792 -115.661763 293 31968ft 461kts
31-Jan-18 19:37 33.927812 -115.780516 293 31971ft 460kts
31-Jan-18 19:38 33.973325 -115.923077 293 32008ft 457kts
31-Jan-18 19:39 34.018322 -116.064664 293 32047ft 455kts
31-Jan-18 19:40 34.062897 -116.205579 293 32076ft 454kts
31-Jan-18 19:41 34.105191 -116.339897 293 32051ft 454kts
31-Jan-18 19:42 34.149319 -116.480665 293 32040ft 454kts
31-Jan-18 19:43 34.193660 -116.622794 293 32020ft 455kts
31-Jan-18 19:44 34.234410 -116.754023 293 32008ft 455kts
31-Jan-18 19:45 34.278265 -116.895887 293 32014ft 455kts
31-Jan-18 19:46 34.322089 -117.038335 293 32014ft 456kts
31-Jan-18 19:47 34.365914 -117.181459 293 32012ft 456kts
31-Jan-18 19:48 34.409555 -117.324692 293 32071ft 455kts
31-Jan-18 19:49 34.452981 -117.467904 293 32091ft 456kts
31-Jan-18 19:50 34.496194 -117.611122 293 32091ft 456kts
31-Jan-18 19:51 34.537677 -117.749262 292 32074ft 457kts
31-Jan-18 19:52 34.580713 -117.893239 292 31585ft 468kts
31-Jan-18 19:53 34.625032 -118.040248 298 29247ft 453kts
31-Jan-18 19:54 34.700395 -118.152577 315 26916ft 429kts
31-Jan-18 19:55 34.778704 -118.255424 315 24626ft 414kts
31-Jan-18 19:56 34.853418 -118.353071 316 22494ft 420kts
31-Jan-18 19:57 34.934144 -118.458853 316 20471ft 435kts
31-Jan-18 19:58 35.015281 -118.565496 316 17710ft 424kts
31-Jan-18 19:59 35.096260 -118.657688 319 14711ft 388kts
31-Jan-18 20:00 35.165962 -118.736184 320 11671ft 326kts
31-Jan-18 20:01 35.219451 -118.814276 279 8679ft 302kts
31-Jan-18 20:02 35.206869 -118.905684 260 7129ft 255kts
31-Jan-18 20:03 35.193391 -118.984036 260 5602ft 222kts
31-Jan-18 20:04 35.219823 -119.026647 17 4449ft 197kts
31-Jan-18 20:05 35.267213 -118.995431 34 3001ft 196kts
31-Jan-18 20:06 35.307140 -118.960341 34 2464ft 157kts
31-Jan-18 20:07 35.346425 -118.952625 327 2467ft 152kts
31-Jan-18 20:08 35.375507 -118.985779 315 2050ft 128kts
31-Jan-18 20:09 35.401323 -119.016877 315 1379ft 132kts
31-Jan-18 20:10 35.426864 -119.047721 315 687ft 127kts
31-Jan-18 20:11 35.442129 -119.064808 39 515ft 10kts
31-Jan-18 20:12 35.440854 -119.062452 134 515ft 14kts
31-Jan-18 20:13 35.437493 -119.058394 136 515ft 19kts
31-Jan-18 20:14 35.434378 -119.054626 135 515ft 16kts
31-Jan-18 20:15 35.430643 -119.050086 135 515ft 19kts
31-Jan-18 20:16 35.428755 -119.046454 83 515ft 9kts

Navigation Log

Ident Type
Flight plan parsing failed, navigation log unavailable